Accueil
METAR-TAF:

METAR-TAF

Aéroports :

Hohenfels, Allemagne

latitude: 49-13N, longitude: 011-50E, altitude: 442 m

Observation

Le bulletin a été fait il y a 1 heure et 15 minutes, à 11:56 UTC
Vent calme
Température 22°C
Humidité 33%
Pression 1021 hPa
Visibilité 10 km ou plus
Ciel clair

METAR: ETIH 011156Z AUTO 00000KT 9999 CLR 22/05 A3015 RMK AO2 SLP206 T02230052 10224 20133 57011

Heure: 15:11 (13:11 UTC)


TAF: absent

Observations et prévisions météorologiques de plus de 4000 aéroports (messages METAR et TAF).

Les stations disponibles sont représentées par des disques jaunes et rouges sur la carte.

Passer la souris dessus pour voir le nom de la station.

Cliquer dessus pour voir les observations et prévisions météorologiques.

Pour changer de carte: cliquez sur les boutons verts avec une croix noire pour zoomer, sur le bouton vert avec un tiret pour effectuer un zoom arrière, ou sur les flèches vertes pour les cartes adjacentes.


METAR-TAF: